sensor_id;sensor_type;location;lat;lon;timestamp;P1;durP1;ratioP1;P2;durP2;ratioP2
40707;SDS011;26392;42.696;23.350;2023-02-28T00:02:13;28.05;;;12.95;;
40707;SDS011;26392;42.696;23.350;2023-02-28T00:04:38;29.70;;;13.40;;
40707;SDS011;26392;42.696;23.350;2023-02-28T00:07:03;31.38;;;13.70;;
40707;SDS011;26392;42.696;23.350;2023-02-28T00:09:29;31.23;;;14.20;;
40707;SDS011;26392;42.696;23.350;2023-02-28T00:11:54;28.65;;;14.30;;
40707;SDS011;26392;42.696;23.350;2023-02-28T00:14:20;29.00;;;13.20;;
40707;SDS011;26392;42.696;23.350;2023-02-28T00:16:45;30.95;;;13.95;;
40707;SDS011;26392;42.696;23.350;2023-02-28T00:19:11;30.15;;;13.90;;
40707;SDS011;26392;42.696;23.350;2023-02-28T00:21:38;31.98;;;14.07;;
40707;SDS011;26392;42.696;23.350;2023-02-28T00:24:06;33.22;;;13.98;;
40707;SDS011;26392;42.696;23.350;2023-02-28T00:26:31;31.92;;;14.57;;
40707;SDS011;26392;42.696;23.350;2023-02-28T00:28:57;32.67;;;14.68;;
40707;SDS011;26392;42.696;23.350;2023-02-28T00:31:22;29.02;;;14.75;;
40707;SDS011;26392;42.696;23.350;2023-02-28T00:33:48;36.70;;;16.33;;
40707;SDS011;26392;42.696;23.350;2023-02-28T00:36:13;38.30;;;16.63;;
40707;SDS011;26392;42.696;23.350;2023-02-28T00:38:40;34.38;;;16.30;;
40707;SDS011;26392;42.696;23.350;2023-02-28T00:41:06;46.42;;;18.60;;
40707;SDS011;26392;42.696;23.350;2023-02-28T00:43:33;42.45;;;17.40;;
40707;SDS011;26392;42.696;23.350;2023-02-28T00:45:59;38.65;;;15.52;;
40707;SDS011;26392;42.696;23.350;2023-02-28T00:48:25;36.53;;;15.88;;
40707;SDS011;26392;42.696;23.350;2023-02-28T00:50:50;38.63;;;16.05;;
40707;SDS011;26392;42.696;23.350;2023-02-28T00:53:16;43.97;;;16.08;;
40707;SDS011;26392;42.696;23.350;2023-02-28T00:55:41;39.58;;;16.13;;
40707;SDS011;26392;42.696;23.350;2023-02-28T00:58:07;40.42;;;16.13;;
40707;SDS011;26392;42.696;23.350;2023-02-28T01:00:32;43.20;;;16.35;;
40707;SDS011;26392;42.696;23.350;2023-02-28T01:02:57;37.75;;;15.57;;
40707;SDS011;26392;42.696;23.350;2023-02-28T01:05:23;39.10;;;15.65;;
40707;SDS011;26392;42.696;23.350;2023-02-28T01:07:49;37.50;;;16.30;;
40707;SDS011;26392;42.696;23.350;2023-02-28T01:10:14;33.90;;;14.77;;
40707;SDS011;26392;42.696;23.350;2023-02-28T01:12:40;36.85;;;14.50;;
40707;SDS011;26392;42.696;23.350;2023-02-28T01:15:05;35.67;;;14.45;;
40707;SDS011;26392;42.696;23.350;2023-02-28T01:17:31;39.60;;;15.40;;
40707;SDS011;26392;42.696;23.350;2023-02-28T01:19:56;34.60;;;13.60;;
40707;SDS011;26392;42.696;23.350;2023-02-28T01:22:22;33.55;;;15.13;;
40707;SDS011;26392;42.696;23.350;2023-02-28T01:24:47;34.40;;;13.75;;
40707;SDS011;26392;42.696;23.350;2023-02-28T01:27:13;37.05;;;15.43;;
40707;SDS011;26392;42.696;23.350;2023-02-28T01:29:38;29.25;;;13.45;;
40707;SDS011;26392;42.696;23.350;2023-02-28T01:32:04;31.77;;;13.93;;
40707;SDS011;26392;42.696;23.350;2023-02-28T01:34:29;34.67;;;14.85;;
40707;SDS011;26392;42.696;23.350;2023-02-28T01:36:55;33.53;;;15.10;;
40707;SDS011;26392;42.696;23.350;2023-02-28T01:39:20;41.03;;;14.90;;
40707;SDS011;26392;42.696;23.350;2023-02-28T01:41:46;37.58;;;15.90;;
40707;SDS011;26392;42.696;23.350;2023-02-28T01:47:14;35.67;;;16.58;;
40707;SDS011;26392;42.696;23.350;2023-02-28T01:49:40;41.55;;;16.25;;
40707;SDS011;26392;42.696;23.350;2023-02-28T01:52:05;42.17;;;17.33;;
40707;SDS011;26392;42.696;23.350;2023-02-28T01:54:32;39.13;;;18.55;;
40707;SDS011;26392;42.696;23.350;2023-02-28T01:57:13;37.10;;;16.90;;
40707;SDS011;26392;42.696;23.350;2023-02-28T01:59:48;43.97;;;17.23;;
40707;SDS011;26392;42.696;23.350;2023-02-28T02:02:26;46.55;;;18.10;;
40707;SDS011;26392;42.696;23.350;2023-02-28T02:04:58;42.90;;;18.17;;
40707;SDS011;26392;42.696;23.350;2023-02-28T02:07:32;43.67;;;18.25;;
40707;SDS011;26392;42.696;23.350;2023-02-28T02:10:24;47.10;;;18.05;;
40707;SDS011;26392;42.696;23.350;2023-02-28T02:15:24;51.58;;;19.58;;
40707;SDS011;26392;42.696;23.350;2023-02-28T02:18:01;45.83;;;18.80;;
40707;SDS011;26392;42.696;23.350;2023-02-28T02:20:49;47.90;;;19.73;;
40707;SDS011;26392;42.696;23.350;2023-02-28T02:42:41;50.45;;;19.33;;
40707;SDS011;26392;42.696;23.350;2023-02-28T02:44:49;45.83;;;17.55;;
40707;SDS011;26392;42.696;23.350;2023-02-28T02:47:21;44.08;;;17.13;;
40707;SDS011;26392;42.696;23.350;2023-02-28T02:49:54;48.20;;;18.38;;
40707;SDS011;26392;42.696;23.350;2023-02-28T02:52:23;54.58;;;18.98;;
40707;SDS011;26392;42.696;23.350;2023-02-28T02:54:55;52.70;;;19.45;;
40707;SDS011;26392;42.696;23.350;2023-02-28T02:57:24;44.22;;;17.77;;
40707;SDS011;26392;42.696;23.350;2023-02-28T02:59:54;45.78;;;18.08;;
40707;SDS011;26392;42.696;23.350;2023-02-28T03:02:22;51.10;;;18.63;;
40707;SDS011;26392;42.696;23.350;2023-02-28T03:04:50;47.45;;;17.60;;
40707;SDS011;26392;42.696;23.350;2023-02-28T03:07:18;45.35;;;16.20;;
40707;SDS011;26392;42.696;23.350;2023-02-28T03:09:51;49.42;;;18.67;;
40707;SDS011;26392;42.696;23.350;2023-02-28T03:12:17;41.20;;;15.93;;
40707;SDS011;26392;42.696;23.350;2023-02-28T03:28:00;44.78;;;16.85;;
40707;SDS011;26392;42.696;23.350;2023-02-28T03:35:39;46.13;;;17.23;;
40707;SDS011;26392;42.696;23.350;2023-02-28T03:38:16;49.03;;;17.42;;
40707;SDS011;26392;42.696;23.350;2023-02-28T03:40:48;49.85;;;18.33;;
40707;SDS011;26392;42.696;23.350;2023-02-28T03:43:22;49.95;;;17.35;;
40707;SDS011;26392;42.696;23.350;2023-02-28T03:45:52;49.65;;;18.10;;
40707;SDS011;26392;42.696;23.350;2023-02-28T03:50:49;55.42;;;19.55;;
40707;SDS011;26392;42.696;23.350;2023-02-28T03:56:06;56.90;;;19.75;;
40707;SDS011;26392;42.696;23.350;2023-02-28T04:01:12;55.50;;;19.08;;
40707;SDS011;26392;42.696;23.350;2023-02-28T04:03:42;55.05;;;20.42;;
40707;SDS011;26392;42.696;23.350;2023-02-28T04:08:52;50.40;;;19.85;;
40707;SDS011;26392;42.696;23.350;2023-02-28T04:13:48;56.30;;;20.50;;
40707;SDS011;26392;42.696;23.350;2023-02-28T04:16:14;54.67;;;20.30;;
40707;SDS011;26392;42.696;23.350;2023-02-28T04:18:40;59.83;;;19.50;;
40707;SDS011;26392;42.696;23.350;2023-02-28T04:21:08;52.92;;;19.58;;
40707;SDS011;26392;42.696;23.350;2023-02-28T04:23:34;61.65;;;20.50;;
40707;SDS011;26392;42.696;23.350;2023-02-28T04:25:59;53.75;;;17.63;;
40707;SDS011;26392;42.696;23.350;2023-02-28T04:28:24;51.20;;;19.77;;
40707;SDS011;26392;42.696;23.350;2023-02-28T04:30:54;50.30;;;18.95;;
40707;SDS011;26392;42.696;23.350;2023-02-28T04:33:24;60.35;;;19.27;;
40707;SDS011;26392;42.696;23.350;2023-02-28T04:36:06;49.75;;;17.80;;
40707;SDS011;26392;42.696;23.350;2023-02-28T04:38:36;54.30;;;18.88;;
40707;SDS011;26392;42.696;23.350;2023-02-28T04:41:03;63.28;;;20.05;;
40707;SDS011;26392;42.696;23.350;2023-02-28T04:43:29;54.42;;;19.52;;
40707;SDS011;26392;42.696;23.350;2023-02-28T04:45:56;64.35;;;20.60;;
40707;SDS011;26392;42.696;23.350;2023-02-28T04:48:23;59.42;;;19.83;;
40707;SDS011;26392;42.696;23.350;2023-02-28T04:50:49;55.40;;;20.25;;
40707;SDS011;26392;42.696;23.350;2023-02-28T04:53:16;63.00;;;21.27;;
40707;SDS011;26392;42.696;23.350;2023-02-28T04:55:42;71.18;;;21.70;;
40707;SDS011;26392;42.696;23.350;2023-02-28T04:58:07;93.53;;;27.95;;
40707;SDS011;26392;42.696;23.350;2023-02-28T05:00:33;108.68;;;34.15;;
40707;SDS011;26392;42.696;23.350;2023-02-28T05:02:58;72.45;;;25.23;;
40707;SDS011;26392;42.696;23.350;2023-02-28T05:05:23;63.95;;;23.63;;
40707;SDS011;26392;42.696;23.350;2023-02-28T05:07:49;74.78;;;22.15;;
40707;SDS011;26392;42.696;23.350;2023-02-28T05:10:14;73.90;;;23.92;;
40707;SDS011;26392;42.696;23.350;2023-02-28T05:12:40;71.05;;;22.55;;
40707;SDS011;26392;42.696;23.350;2023-02-28T05:15:05;65.85;;;21.20;;
40707;SDS011;26392;42.696;23.350;2023-02-28T05:17:31;71.03;;;21.63;;
40707;SDS011;26392;42.696;23.350;2023-02-28T05:19:57;69.55;;;21.55;;
40707;SDS011;26392;42.696;23.350;2023-02-28T05:22:22;75.78;;;23.02;;
40707;SDS011;26392;42.696;23.350;2023-02-28T05:24:47;62.28;;;22.00;;
40707;SDS011;26392;42.696;23.350;2023-02-28T05:27:13;74.00;;;23.80;;
40707;SDS011;26392;42.696;23.350;2023-02-28T05:29:38;70.72;;;25.20;;
40707;SDS011;26392;42.696;23.350;2023-02-28T05:32:10;78.95;;;23.75;;
40707;SDS011;26392;42.696;23.350;2023-02-28T05:34:39;74.70;;;25.17;;
40707;SDS011;26392;42.696;23.350;2023-02-28T05:37:05;76.78;;;24.02;;
40707;SDS011;26392;42.696;23.350;2023-02-28T05:39:32;71.28;;;23.35;;
40707;SDS011;26392;42.696;23.350;2023-02-28T05:41:58;69.38;;;23.63;;
40707;SDS011;26392;42.696;23.350;2023-02-28T05:44:23;87.40;;;25.58;;
40707;SDS011;26392;42.696;23.350;2023-02-28T05:46:49;87.43;;;27.73;;
40707;SDS011;26392;42.696;23.350;2023-02-28T05:49:15;76.15;;;25.33;;
40707;SDS011;26392;42.696;23.350;2023-02-28T05:51:40;68.53;;;24.90;;
40707;SDS011;26392;42.696;23.350;2023-02-28T05:54:05;76.20;;;24.95;;
40707;SDS011;26392;42.696;23.350;2023-02-28T05:56:31;61.08;;;23.95;;
40707;SDS011;26392;42.696;23.350;2023-02-28T05:58:59;71.38;;;24.27;;
40707;SDS011;26392;42.696;23.350;2023-02-28T06:01:30;67.90;;;24.15;;
40707;SDS011;26392;42.696;23.350;2023-02-28T06:03:57;63.10;;;22.85;;
40707;SDS011;26392;42.696;23.350;2023-02-28T06:06:23;65.40;;;22.13;;
40707;SDS011;26392;42.696;23.350;2023-02-28T06:08:49;60.63;;;21.88;;
40707;SDS011;26392;42.696;23.350;2023-02-28T06:11:14;61.38;;;21.88;;
40707;SDS011;26392;42.696;23.350;2023-02-28T06:13:40;62.50;;;21.15;;
40707;SDS011;26392;42.696;23.350;2023-02-28T06:16:05;60.55;;;22.27;;
40707;SDS011;26392;42.696;23.350;2023-02-28T06:18:32;60.95;;;22.35;;
40707;SDS011;26392;42.696;23.350;2023-02-28T06:20:57;60.85;;;22.05;;
40707;SDS011;26392;42.696;23.350;2023-02-28T06:23:23;66.88;;;23.80;;
40707;SDS011;26392;42.696;23.350;2023-02-28T06:25:48;64.13;;;23.15;;
40707;SDS011;26392;42.696;23.350;2023-02-28T06:28:14;64.45;;;23.38;;
40707;SDS011;26392;42.696;23.350;2023-02-28T06:30:40;59.92;;;22.67;;
40707;SDS011;26392;42.696;23.350;2023-02-28T06:33:05;59.30;;;23.98;;
40707;SDS011;26392;42.696;23.350;2023-02-28T06:35:31;61.03;;;24.02;;
40707;SDS011;26392;42.696;23.350;2023-02-28T06:37:57;55.53;;;22.45;;
40707;SDS011;26392;42.696;23.350;2023-02-28T06:40:22;60.35;;;23.58;;
40707;SDS011;26392;42.696;23.350;2023-02-28T06:42:48;57.47;;;22.25;;
40707;SDS011;26392;42.696;23.350;2023-02-28T06:45:13;56.72;;;23.67;;
40707;SDS011;26392;42.696;23.350;2023-02-28T06:47:39;70.40;;;24.25;;
40707;SDS011;26392;42.696;23.350;2023-02-28T06:50:07;82.85;;;26.90;;
40707;SDS011;26392;42.696;23.350;2023-02-28T06:52:35;68.15;;;24.27;;
40707;SDS011;26392;42.696;23.350;2023-02-28T06:55:04;65.30;;;22.73;;
40707;SDS011;26392;42.696;23.350;2023-02-28T06:57:30;66.25;;;22.70;;
40707;SDS011;26392;42.696;23.350;2023-02-28T06:59:58;53.03;;;20.75;;
40707;SDS011;26392;42.696;23.350;2023-02-28T07:02:24;62.88;;;22.38;;
40707;SDS011;26392;42.696;23.350;2023-02-28T07:04:50;64.40;;;23.25;;
40707;SDS011;26392;42.696;23.350;2023-02-28T07:07:15;65.20;;;22.63;;
40707;SDS011;26392;42.696;23.350;2023-02-28T07:09:41;61.28;;;22.70;;
40707;SDS011;26392;42.696;23.350;2023-02-28T07:12:06;58.38;;;21.13;;
40707;SDS011;26392;42.696;23.350;2023-02-28T07:14:32;59.92;;;21.35;;
40707;SDS011;26392;42.696;23.350;2023-02-28T07:16:57;57.05;;;20.48;;
40707;SDS011;26392;42.696;23.350;2023-02-28T07:19:23;62.95;;;22.48;;
40707;SDS011;26392;42.696;23.350;2023-02-28T07:21:48;58.13;;;20.75;;
40707;SDS011;26392;42.696;23.350;2023-02-28T07:24:14;54.60;;;21.08;;
40707;SDS011;26392;42.696;23.350;2023-02-28T07:26:41;58.28;;;21.58;;
40707;SDS011;26392;42.696;23.350;2023-02-28T07:29:06;49.40;;;19.10;;
40707;SDS011;26392;42.696;23.350;2023-02-28T07:31:32;44.65;;;19.80;;
40707;SDS011;26392;42.696;23.350;2023-02-28T07:33:57;51.40;;;20.10;;
40707;SDS011;26392;42.696;23.350;2023-02-28T07:36:22;48.08;;;19.27;;
40707;SDS011;26392;42.696;23.350;2023-02-28T07:38:48;52.38;;;20.55;;
40707;SDS011;26392;42.696;23.350;2023-02-28T07:41:18;49.53;;;19.90;;
40707;SDS011;26392;42.696;23.350;2023-02-28T07:43:45;44.92;;;18.48;;
40707;SDS011;26392;42.696;23.350;2023-02-28T07:46:12;45.30;;;19.25;;
40707;SDS011;26392;42.696;23.350;2023-02-28T07:48:43;41.50;;;17.42;;
40707;SDS011;26392;42.696;23.350;2023-02-28T07:51:09;38.00;;;18.77;;
40707;SDS011;26392;42.696;23.350;2023-02-28T07:53:34;42.25;;;18.73;;
40707;SDS011;26392;42.696;23.350;2023-02-28T07:56:00;40.30;;;18.20;;
40707;SDS011;26392;42.696;23.350;2023-02-28T07:58:27;44.50;;;20.02;;
40707;SDS011;26392;42.696;23.350;2023-02-28T08:00:54;45.22;;;18.73;;
40707;SDS011;26392;42.696;23.350;2023-02-28T08:03:20;39.85;;;20.30;;
40707;SDS011;26392;42.696;23.350;2023-02-28T08:05:47;45.20;;;19.73;;
40707;SDS011;26392;42.696;23.350;2023-02-28T08:08:12;42.80;;;19.83;;
40707;SDS011;26392;42.696;23.350;2023-02-28T08:10:38;41.20;;;18.98;;
40707;SDS011;26392;42.696;23.350;2023-02-28T08:13:04;43.10;;;19.25;;
40707;SDS011;26392;42.696;23.350;2023-02-28T08:15:29;37.13;;;18.23;;
40707;SDS011;26392;42.696;23.350;2023-02-28T08:17:55;39.65;;;19.00;;
40707;SDS011;26392;42.696;23.350;2023-02-28T08:20:21;43.40;;;19.08;;
40707;SDS011;26392;42.696;23.350;2023-02-28T08:22:48;46.72;;;20.40;;
40707;SDS011;26392;42.696;23.350;2023-02-28T08:25:14;48.83;;;21.67;;
40707;SDS011;26392;42.696;23.350;2023-02-28T08:27:40;42.75;;;20.05;;
40707;SDS011;26392;42.696;23.350;2023-02-28T08:30:06;43.25;;;19.02;;
40707;SDS011;26392;42.696;23.350;2023-02-28T08:32:34;40.05;;;20.63;;
40707;SDS011;26392;42.696;23.350;2023-02-28T08:35:00;43.80;;;22.08;;
40707;SDS011;26392;42.696;23.350;2023-02-28T08:37:26;41.67;;;19.65;;
40707;SDS011;26392;42.696;23.350;2023-02-28T08:39:53;40.35;;;20.23;;
40707;SDS011;26392;42.696;23.350;2023-02-28T08:42:18;43.53;;;20.25;;
40707;SDS011;26392;42.696;23.350;2023-02-28T08:44:44;45.95;;;20.40;;
40707;SDS011;26392;42.696;23.350;2023-02-28T08:47:09;43.15;;;20.48;;
40707;SDS011;26392;42.696;23.350;2023-02-28T08:49:36;43.47;;;19.85;;
40707;SDS011;26392;42.696;23.350;2023-02-28T08:52:02;44.47;;;17.83;;
40707;SDS011;26392;42.696;23.350;2023-02-28T08:54:28;37.80;;;18.58;;
40707;SDS011;26392;42.696;23.350;2023-02-28T08:56:56;38.22;;;15.98;;
40707;SDS011;26392;42.696;23.350;2023-02-28T08:59:21;36.80;;;15.63;;
40707;SDS011;26392;42.696;23.350;2023-02-28T09:01:47;30.98;;;13.88;;
40707;SDS011;26392;42.696;23.350;2023-02-28T09:04:12;34.63;;;13.40;;
40707;SDS011;26392;42.696;23.350;2023-02-28T09:06:38;32.65;;;13.40;;
40707;SDS011;26392;42.696;23.350;2023-02-28T09:09:03;39.95;;;15.07;;
40707;SDS011;26392;42.696;23.350;2023-02-28T09:11:31;33.67;;;14.57;;
40707;SDS011;26392;42.696;23.350;2023-02-28T09:13:57;29.60;;;13.88;;
40707;SDS011;26392;42.696;23.350;2023-02-28T09:16:25;33.75;;;13.43;;
40707;SDS011;26392;42.696;23.350;2023-02-28T09:18:50;26.85;;;13.60;;
40707;SDS011;26392;42.696;23.350;2023-02-28T09:21:16;31.77;;;13.30;;
40707;SDS011;26392;42.696;23.350;2023-02-28T09:23:43;24.33;;;11.90;;
40707;SDS011;26392;42.696;23.350;2023-02-28T09:29:05;30.05;;;13.88;;
40707;SDS011;26392;42.696;23.350;2023-02-28T09:31:31;33.55;;;13.65;;
40707;SDS011;26392;42.696;23.350;2023-02-28T09:33:57;30.73;;;13.30;;
40707;SDS011;26392;42.696;23.350;2023-02-28T09:36:24;38.97;;;14.98;;
40707;SDS011;26392;42.696;23.350;2023-02-28T09:38:50;32.10;;;12.93;;
40707;SDS011;26392;42.696;23.350;2023-02-28T09:41:22;28.30;;;12.52;;
40707;SDS011;26392;42.696;23.350;2023-02-28T09:43:51;40.55;;;14.43;;
40707;SDS011;26392;42.696;23.350;2023-02-28T09:46:37;39.15;;;14.75;;
40707;SDS011;26392;42.696;23.350;2023-02-28T09:49:12;38.47;;;14.70;;
40707;SDS011;26392;42.696;23.350;2023-02-28T09:54:21;27.10;;;12.23;;
40707;SDS011;26392;42.696;23.350;2023-02-28T09:56:56;26.88;;;11.77;;
40707;SDS011;26392;42.696;23.350;2023-02-28T09:59:37;27.50;;;11.30;;
40707;SDS011;26392;42.696;23.350;2023-02-28T10:05:11;25.33;;;11.30;;
40707;SDS011;26392;42.696;23.350;2023-02-28T10:13:00;28.77;;;10.18;;
40707;SDS011;26392;42.696;23.350;2023-02-28T10:15:30;29.17;;;11.35;;
40707;SDS011;26392;42.696;23.350;2023-02-28T10:17:58;30.10;;;11.73;;
40707;SDS011;26392;42.696;23.350;2023-02-28T10:20:28;22.38;;;9.93;;
40707;SDS011;26392;42.696;23.350;2023-02-28T10:23:02;25.75;;;11.18;;
40707;SDS011;26392;42.696;23.350;2023-02-28T10:25:35;31.23;;;10.82;;
40707;SDS011;26392;42.696;23.350;2023-02-28T10:28:11;22.80;;;10.07;;
40707;SDS011;26392;42.696;23.350;2023-02-28T10:30:39;28.58;;;10.02;;
40707;SDS011;26392;42.696;23.350;2023-02-28T10:33:10;33.00;;;9.98;;
40707;SDS011;26392;42.696;23.350;2023-02-28T10:35:49;20.02;;;9.98;;
40707;SDS011;26392;42.696;23.350;2023-02-28T10:38:17;33.13;;;10.52;;
40707;SDS011;26392;42.696;23.350;2023-02-28T10:41:07;28.33;;;9.82;;
40707;SDS011;26392;42.696;23.350;2023-02-28T10:43:33;25.38;;;9.25;;
40707;SDS011;26392;42.696;23.350;2023-02-28T10:49:05;30.67;;;11.00;;
40707;SDS011;26392;42.696;23.350;2023-02-28T10:51:38;27.63;;;10.23;;
40707;SDS011;26392;42.696;23.350;2023-02-28T10:54:05;43.80;;;12.18;;
40707;SDS011;26392;42.696;23.350;2023-02-28T10:56:31;33.90;;;12.23;;
40707;SDS011;26392;42.696;23.350;2023-02-28T11:03:57;27.63;;;11.15;;
40707;SDS011;26392;42.696;23.350;2023-02-28T11:06:25;34.83;;;12.25;;
40707;SDS011;26392;42.696;23.350;2023-02-28T11:08:56;36.55;;;12.40;;
40707;SDS011;26392;42.696;23.350;2023-02-28T11:11:25;32.22;;;12.70;;
40707;SDS011;26392;42.696;23.350;2023-02-28T11:13:54;29.25;;;12.43;;
40707;SDS011;26392;42.696;23.350;2023-02-28T11:16:22;27.38;;;11.07;;
40707;SDS011;26392;42.696;23.350;2023-02-28T11:19:00;33.10;;;10.77;;
40707;SDS011;26392;42.696;23.350;2023-02-28T11:21:27;25.98;;;11.48;;
40707;SDS011;26392;42.696;23.350;2023-02-28T11:24:16;34.47;;;11.13;;
40707;SDS011;26392;42.696;23.350;2023-02-28T11:26:52;28.85;;;10.80;;
40707;SDS011;26392;42.696;23.350;2023-02-28T11:29:19;24.60;;;9.82;;
40707;SDS011;26392;42.696;23.350;2023-02-28T11:32:12;29.52;;;10.20;;
40707;SDS011;26392;42.696;23.350;2023-02-28T11:34:38;26.70;;;11.25;;
40707;SDS011;26392;42.696;23.350;2023-02-28T11:37:08;29.27;;;9.88;;
40707;SDS011;26392;42.696;23.350;2023-02-28T11:39:37;25.80;;;10.82;;
40707;SDS011;26392;42.696;23.350;2023-02-28T12:09:02;27.77;;;11.02;;
40707;SDS011;26392;42.696;23.350;2023-02-28T12:16:57;21.75;;;9.65;;
40707;SDS011;26392;42.696;23.350;2023-02-28T12:27:31;26.40;;;10.35;;
40707;SDS011;26392;42.696;23.350;2023-02-28T12:35:42;32.90;;;9.27;;
40707;SDS011;26392;42.696;23.350;2023-02-28T12:38:16;23.77;;;10.20;;
40707;SDS011;26392;42.696;23.350;2023-02-28T12:40:47;35.20;;;11.05;;
40707;SDS011;26392;42.696;23.350;2023-02-28T12:43:17;28.00;;;11.10;;
40707;SDS011;26392;42.696;23.350;2023-02-28T12:45:52;21.50;;;8.98;;
40707;SDS011;26392;42.696;23.350;2023-02-28T12:48:25;33.08;;;9.55;;
40707;SDS011;26392;42.696;23.350;2023-02-28T12:50:58;25.58;;;10.13;;
40707;SDS011;26392;42.696;23.350;2023-02-28T12:53:30;27.58;;;9.55;;
40707;SDS011;26392;42.696;23.350;2023-02-28T12:58:45;23.42;;;9.88;;
40707;SDS011;26392;42.696;23.350;2023-02-28T13:01:21;24.55;;;9.60;;
40707;SDS011;26392;42.696;23.350;2023-02-28T13:06:58;25.55;;;9.93;;
40707;SDS011;26392;42.696;23.350;2023-02-28T13:09:54;25.67;;;10.25;;
40707;SDS011;26392;42.696;23.350;2023-02-28T13:12:23;22.00;;;9.32;;
40707;SDS011;26392;42.696;23.350;2023-02-28T13:14:49;30.20;;;10.95;;
40707;SDS011;26392;42.696;23.350;2023-02-28T13:17:24;25.63;;;9.52;;
40707;SDS011;26392;42.696;23.350;2023-02-28T13:22:41;28.80;;;10.55;;
40707;SDS011;26392;42.696;23.350;2023-02-28T13:25:50;23.13;;;9.82;;
40707;SDS011;26392;42.696;23.350;2023-02-28T13:27:51;24.58;;;10.18;;
40707;SDS011;26392;42.696;23.350;2023-02-28T13:33:27;22.75;;;9.82;;
40707;SDS011;26392;42.696;23.350;2023-02-28T13:36:06;24.80;;;10.02;;
40707;SDS011;26392;42.696;23.350;2023-02-28T13:38:47;33.13;;;11.05;;
40707;SDS011;26392;42.696;23.350;2023-02-28T14:05:25;18.77;;;8.10;;
40707;SDS011;26392;42.696;23.350;2023-02-28T14:07:55;17.70;;;8.85;;
40707;SDS011;26392;42.696;23.350;2023-02-28T14:10:27;22.48;;;8.32;;
40707;SDS011;26392;42.696;23.350;2023-02-28T14:13:13;22.27;;;8.98;;
40707;SDS011;26392;42.696;23.350;2023-02-28T14:16:01;22.10;;;8.15;;
40707;SDS011;26392;42.696;23.350;2023-02-28T14:18:35;28.40;;;8.52;;
40707;SDS011;26392;42.696;23.350;2023-02-28T14:38:14;27.67;;;9.52;;
40707;SDS011;26392;42.696;23.350;2023-02-28T14:40:51;32.00;;;10.02;;
40707;SDS011;26392;42.696;23.350;2023-02-28T14:43:23;28.10;;;10.20;;
40707;SDS011;26392;42.696;23.350;2023-02-28T14:45:51;30.50;;;9.00;;
40707;SDS011;26392;42.696;23.350;2023-02-28T14:48:20;26.15;;;10.00;;
40707;SDS011;26392;42.696;23.350;2023-02-28T14:50:48;29.23;;;9.23;;
40707;SDS011;26392;42.696;23.350;2023-02-28T14:53:17;23.88;;;9.07;;
40707;SDS011;26392;42.696;23.350;2023-02-28T14:55:45;25.25;;;9.63;;
40707;SDS011;26392;42.696;23.350;2023-02-28T14:58:19;29.17;;;10.23;;
40707;SDS011;26392;42.696;23.350;2023-02-28T15:00:46;25.80;;;10.25;;
40707;SDS011;26392;42.696;23.350;2023-02-28T15:03:21;31.55;;;10.20;;
40707;SDS011;26392;42.696;23.350;2023-02-28T15:05:56;32.55;;;10.18;;
40707;SDS011;26392;42.696;23.350;2023-02-28T15:08:24;57.38;;;18.33;;
40707;SDS011;26392;42.696;23.350;2023-02-28T15:10:54;53.58;;;18.95;;
40707;SDS011;26392;42.696;23.350;2023-02-28T15:13:25;23.52;;;11.00;;
40707;SDS011;26392;42.696;23.350;2023-02-28T15:16:22;26.92;;;10.52;;
40707;SDS011;26392;42.696;23.350;2023-02-28T15:21:22;27.92;;;9.60;;
40707;SDS011;26392;42.696;23.350;2023-02-28T15:23:55;26.90;;;9.07;;
40707;SDS011;26392;42.696;23.350;2023-02-28T15:26:39;16.58;;;9.05;;
40707;SDS011;26392;42.696;23.350;2023-02-28T15:29:13;22.30;;;10.00;;
40707;SDS011;26392;42.696;23.350;2023-02-28T15:32:05;24.20;;;10.05;;
40707;SDS011;26392;42.696;23.350;2023-02-28T15:34:35;21.70;;;10.23;;
40707;SDS011;26392;42.696;23.350;2023-02-28T15:37:06;24.67;;;13.50;;
40707;SDS011;26392;42.696;23.350;2023-02-28T15:39:53;31.52;;;14.68;;
40707;SDS011;26392;42.696;23.350;2023-02-28T15:42:22;30.23;;;14.38;;
40707;SDS011;26392;42.696;23.350;2023-02-28T15:44:48;23.23;;;11.90;;
40707;SDS011;26392;42.696;23.350;2023-02-28T15:47:18;24.58;;;12.02;;
40707;SDS011;26392;42.696;23.350;2023-02-28T15:52:29;23.48;;;9.70;;
40707;SDS011;26392;42.696;23.350;2023-02-28T15:57:43;19.70;;;8.38;;
40707;SDS011;26392;42.696;23.350;2023-02-28T16:00:13;25.08;;;10.10;;
40707;SDS011;26392;42.696;23.350;2023-02-28T16:02:41;20.67;;;10.70;;
40707;SDS011;26392;42.696;23.350;2023-02-28T16:07:33;23.27;;;9.93;;
40707;SDS011;26392;42.696;23.350;2023-02-28T16:10:03;26.08;;;10.75;;
40707;SDS011;26392;42.696;23.350;2023-02-28T16:12:31;20.73;;;9.02;;
40707;SDS011;26392;42.696;23.350;2023-02-28T16:15:01;20.88;;;8.20;;
40707;SDS011;26392;42.696;23.350;2023-02-28T16:17:32;19.20;;;7.82;;
40707;SDS011;26392;42.696;23.350;2023-02-28T16:19:59;17.60;;;8.32;;
40707;SDS011;26392;42.696;23.350;2023-02-28T16:22:25;16.42;;;8.02;;
40707;SDS011;26392;42.696;23.350;2023-02-28T16:24:51;22.77;;;8.10;;
40707;SDS011;26392;42.696;23.350;2023-02-28T16:27:20;18.15;;;7.68;;
40707;SDS011;26392;42.696;23.350;2023-02-28T16:29:50;20.38;;;7.78;;
40707;SDS011;26392;42.696;23.350;2023-02-28T16:32:15;15.48;;;7.50;;
40707;SDS011;26392;42.696;23.350;2023-02-28T16:34:42;22.98;;;8.68;;
40707;SDS011;26392;42.696;23.350;2023-02-28T16:37:16;19.08;;;9.23;;
40707;SDS011;26392;42.696;23.350;2023-02-28T16:39:43;31.88;;;9.70;;
40707;SDS011;26392;42.696;23.350;2023-02-28T16:42:11;21.17;;;8.45;;
40707;SDS011;26392;42.696;23.350;2023-02-28T16:44:42;19.83;;;8.43;;
40707;SDS011;26392;42.696;23.350;2023-02-28T16:47:08;17.00;;;7.82;;
40707;SDS011;26392;42.696;23.350;2023-02-28T16:49:35;19.80;;;8.68;;
40707;SDS011;26392;42.696;23.350;2023-02-28T16:52:00;18.52;;;8.38;;
40707;SDS011;26392;42.696;23.350;2023-02-28T16:54:26;23.30;;;8.68;;
40707;SDS011;26392;42.696;23.350;2023-02-28T16:56:51;16.50;;;7.32;;
40707;SDS011;26392;42.696;23.350;2023-02-28T16:59:18;18.05;;;8.50;;
40707;SDS011;26392;42.696;23.350;2023-02-28T17:01:47;15.60;;;7.63;;
40707;SDS011;26392;42.696;23.350;2023-02-28T17:04:13;22.50;;;8.27;;
40707;SDS011;26392;42.696;23.350;2023-02-28T17:06:39;18.83;;;8.30;;
40707;SDS011;26392;42.696;23.350;2023-02-28T17:09:05;24.40;;;8.15;;
40707;SDS011;26392;42.696;23.350;2023-02-28T17:11:33;20.15;;;7.28;;
40707;SDS011;26392;42.696;23.350;2023-02-28T17:13:58;18.85;;;6.75;;
40707;SDS011;26392;42.696;23.350;2023-02-28T17:18:54;19.42;;;6.13;;
40707;SDS011;26392;42.696;23.350;2023-02-28T17:21:26;13.30;;;6.10;;
40707;SDS011;26392;42.696;23.350;2023-02-28T17:23:53;13.50;;;5.88;;
40707;SDS011;26392;42.696;23.350;2023-02-28T17:26:19;18.33;;;5.50;;
40707;SDS011;26392;42.696;23.350;2023-02-28T17:28:46;14.13;;;6.05;;
40707;SDS011;26392;42.696;23.350;2023-02-28T17:31:12;22.00;;;6.32;;